• Join FlightAware (Why Join?)
  • Login
  • US Flag 
02:09AM EDT


 

Airport Tracker/Info


-or-


 

Live Flight TrackerFlight Track Log ✈ UPS1111 ✈ 28-Aug-2013 ✈ KJFK - KSDF

Flight Track Log - Related Links

Times and Time Zones

All times are in EDT time to prevent confusion due to time zone crossing. See the UPS1111 flight status page for this flight to view local times or setup timezone preferences in your user account.

Time Position Orientation Groundspeed Altitude Reporting Facility
EDT Latitude Longitude Course Direction KTS MPH feet Rate Location/Type
11:17PM 40.6450 -73.7670 143° Southeast 72 83  Level FlightAware
11:18PM 40.6320 -73.7780 213° Southwest 169 194 200 1,620 Climbing FlightAware
11:18PM 40.6190 -73.7880 210° Southwest 175 201 1,200 2,460 Climbing FlightAware
11:18PM 40.6080 -73.7980 215° Southwest 190 219 1,700 1,620 Climbing FlightAware
11:19PM 40.5920 -73.8110 212° Southwest 221 254 2,200 1,800 Climbing FlightAware
11:19PM 40.5720 -73.8280 213° Southwest 242 278 3,000 2,700 Climbing FlightAware
11:19PM 40.5530 -73.8440 213° Southwest 251 289 4,100 2,820 Climbing FlightAware
11:20PM 40.5380 -73.8580 215° Southwest 265 305 4,700 2,520 Climbing FlightAware
11:20PM 40.5180 -73.8760 214° Southwest 277 319 5,600 3,060 Climbing FlightAware
11:20PM 40.4960 -73.8950 213° Southwest 282 325 6,700 3,300 Climbing FlightAware
11:21PM 40.4730 -73.9160 215° Southwest 286 329 7,800 3,060 Climbing FlightAware
11:21PM 40.4560 -73.9330 217° Southwest 293 337 8,600 2,700 Climbing FlightAware
11:21PM 40.4500 -73.9440 234° Southwest 296 341 8,900 2,880 Climbing FlightAware
11:21PM 40.4270 -73.9920 238° Southwest 306 352 10,500 2,100 Climbing FlightAware
11:22PM 40.3990 -74.0550 240° Southwest 355 409 11,300 1,980 Climbing FlightAware
11:23PM 40.3670 -74.1250 239° Southwest 384 442 12,900 3,120 Climbing FlightAware
11:23PM 40.3340 -74.2000 240° Southwest 394 453 15,100 3,240 Climbing FlightAware
11:24PM 40.3030 -74.2690 240° Southwest 405 466 16,700 2,880 Climbing FlightAware
11:24PM 40.2740 -74.3390 242° Southwest 407 468 18,300 3,120 Climbing FlightAware
11:25PM 40.2660 -74.3780 255° West 406 467 19,200 2,640 Climbing FlightAware
11:25PM 40.2620 -74.4670 267° West 421 484 20,700 2,520 Climbing FlightAware
11:26PM 40.2600 -74.5500 268° West 431 496 22,200 3,000 Climbing FlightAware
11:26PM 40.2590 -74.6480 269° West 436 502 24,100 2,700 Climbing FlightAware
11:27PM 40.2580 -74.7400 269° West 445 512 25,500 2,280 Climbing FlightAware
11:28PM 40.2570 -74.8400 269° West 455 524 26,900 2,340 Climbing FlightAware
11:28PM 40.2550 -74.9310 268° West 461 531 28,200 2,520 Climbing FlightAware
11:29PM 40.2540 -75.0320 269° West 460 529 29,800 3,060 Climbing FlightAware
11:29PM 40.2510 -75.1210 267° West 442 509 31,800 2,820 Climbing FlightAware
11:30PM 40.2500 -75.2140 269° West 441 507 33,100 1,980 Climbing FlightAware
11:30PM 40.2490 -75.3040 269° West 441 507 34,200 2,160 Climbing FlightAware
11:31PM 40.2470 -75.3960 268° West 425 489 35,600 1,560 Climbing FlightAware
11:32PM 40.2460 -75.4870 269° West 426 490 36,000 300 Climbing FlightAware
11:32PM 40.2440 -75.5820 268° West 433 498 36,000  Level FlightAware
11:33PM 40.2420 -75.6720 268° West 433 498 36,000  Level FlightAware
11:33PM 40.2400 -75.7570 268° West 432 497 36,000  Level FlightAware
11:34PM 40.2370 -75.8580 268° West 429 494 36,000  Level FlightAware
11:34PM 40.2360 -75.9360 269° West 428 493 36,000  Level FlightAware
11:35PM 40.2330 -76.0330 268° West 426 490 36,000  Level FlightAware
11:36PM 40.2310 -76.1240 268° West 425 489 36,000  Level FlightAware
11:36PM 40.2290 -76.2210 268° West 425 489 36,000  Level FlightAware
11:37PM 40.2270 -76.2980 268° West 424 488 36,000  Level FlightAware
11:37PM 40.2220 -76.3880 266° West 434 499 36,000 300 Level FlightAware
11:38PM 40.2070 -76.4820 258° West 440 506 36,400 900 Climbing FlightAware
11:39PM 40.1940 -76.5730 259° West 440 506 37,100 1,260 Climbing FlightAware
11:39PM 40.1960 -76.6600 272° West 423 487 37,900 720 Climbing FlightAware
11:40PM 40.1990 -76.7570 272° West 426 490 38,000 60 Climbing FlightAware
11:40PM 40.2000 -76.8450 271° West 424 488 38,000  Level FlightAware
11:41PM 40.2000 -76.9270 270° West 424 488 38,000  Level FlightAware
11:42PM 40.2000 -77.0260 270° West 426 490 38,000  Level FlightAware
11:42PM 40.2000 -77.1120 270° West 427 491 38,000  Level FlightAware
11:43PM 40.2000 -77.1940 270° West 427 491 38,000  Level FlightAware
11:43PM 40.2000 -77.2960 270° West 427 491 38,000  Level FlightAware
11:44PM 40.2010 -77.3840 271° West 427 491 38,000  Level FlightAware
11:45PM 40.2030 -77.4970 271° West 427 491 38,000  Level FlightAware
11:45PM 40.2040 -77.5750 271° West 428 493 38,000  Level FlightAware
11:46PM 40.2050 -77.6730 271° West 428 493 38,000  Level FlightAware
11:46PM 40.2060 -77.7660 271° West 428 493 38,000  Level FlightAware
11:47PM 40.2070 -77.8600 271° West 428 493 38,000  Level FlightAware
11:47PM 40.2060 -77.9390 269° West 431 496 38,000  Level FlightAware
11:48PM 40.1960 -78.0370 262° West 435 501 38,000  Level FlightAware
11:49PM 40.1830 -78.1180 258° West 435 501 38,000  Level FlightAware
11:49PM 40.1690 -78.2120 259° West 433 498 38,000  Level FlightAware
11:50PM 40.1560 -78.3050 260° West 433 498 38,000  Level FlightAware
11:50PM 40.1420 -78.4000 259° West 432 497 38,000  Level FlightAware
11:51PM 40.1300 -78.4830 259° West 431 496 38,000  Level FlightAware
11:52PM 40.1160 -78.5750 259° West 432 497 38,000  Level FlightAware
11:52PM 40.1040 -78.6510 258° West 431 496 38,000  Level FlightAware
11:53PM 40.0870 -78.7670 259° West 432 497 38,000  Level FlightAware
11:53PM 40.0720 -78.8620 258° West 432 497 38,000  Level FlightAware
11:54PM 40.0600 -78.9440 259° West 433 498 38,000  Level FlightAware
11:55PM 40.0440 -79.0460 258° West 433 498 38,000  Level FlightAware
11:55PM 40.0310 -79.1280 258° West 434 499 38,000  Level FlightAware
11:56PM 40.0170 -79.2170 258° West 435 501 38,000  Level FlightAware
11:56PM 40.0020 -79.3130 259° West 435 501 38,000  Level FlightAware
11:57PM 39.9880 -79.4030 259° West 434 499 38,000  Level FlightAware
11:58PM 39.9750 -79.4880 259° West 434 499 38,000  Level FlightAware
11:58PM 39.9610 -79.5740 258° West 434 499 38,000  Level FlightAware
11:59PM 39.9470 -79.6630 258° West 435 501 38,000  Level FlightAware
11:59PM 39.9320 -79.7530 258° West 434 499 38,000  Level FlightAware
12:00AM 39.9160 -79.8520 258° West 435 501 38,000  Level FlightAware
12:00AM 39.9010 -79.9420 258° West 435 501 38,000  Level FlightAware
12:01AM 39.8880 -80.0250 258° West 435 501 38,000  Level FlightAware
12:02AM 39.8750 -80.1050 258° West 435 501 38,000  Level FlightAware
12:02AM 39.8600 -80.1930 258° West 436 502 38,000  Level FlightAware
12:03AM 39.8450 -80.2860 258° West 436 502 38,000  Level FlightAware
12:03AM 39.8340 -80.3490 257° West 437 503 38,000  Level FlightAware
12:04AM 39.8180 -80.4480 258° West 437 503 38,000  Level FlightAware
12:05AM 39.7950 -80.5820 257° West 439 505 38,000  Level FlightAware
12:05AM 39.7820 -80.6580 257° West 440 506 38,000  Level FlightAware
12:06AM 39.7600 -80.7830 257° West 440 506 38,000  Level FlightAware
12:07AM 39.7410 -80.9010 258° West 443 510 38,000  Level FlightAware
12:07AM 39.7250 -80.9920 257° West 443 510 38,000  Level FlightAware
12:08AM 39.7090 -81.0840 257° West 443 510 38,000  Level FlightAware
12:09AM 39.6920 -81.1820 257° West 443 510 38,000  Level FlightAware
12:09AM 39.6770 -81.2690 257° West 444 511 38,000  Level FlightAware
12:10AM 39.6600 -81.3600 256° West 444 511 38,000  Level FlightAware
12:10AM 39.6440 -81.4500 257° West 444 511 38,000  Level FlightAware
12:11AM 39.6320 -81.5180 257° West 445 512 38,000  Level FlightAware
12:11AM 39.6120 -81.6330 257° West 444 511 38,000  Level FlightAware
12:12AM 39.5940 -81.7320 257° West 444 511 38,000  Level FlightAware
12:13AM 39.5800 -81.8080 257° West 444 511 38,000  Level FlightAware
12:13AM 39.5620 -81.9070 257° West 444 511 38,000  Level FlightAware
12:14AM 39.5470 -81.9890 257° West 444 511 38,000  Level FlightAware
12:14AM 39.5300 -82.0840 257° West 444 511 38,000  Level FlightAware
12:15AM 39.5120 -82.1840 257° West 447 514 38,000  Level FlightAware
12:15AM 39.4970 -82.2630 256° West 447 514 38,000  Level FlightAware
12:16AM 39.4790 -82.3580 256° West 446 513 38,000  Level FlightAware
12:17AM 39.4620 -82.4530 257° West 446 513 38,000  Level FlightAware
12:17AM 39.4450 -82.5410 256° West 448 516 38,000  Level FlightAware
12:18AM 39.4280 -82.6300 256° West 448 516 38,000  Level FlightAware
12:18AM 39.4120 -82.7180 257° West 449 517 38,000  Level FlightAware
12:19AM 39.3930 -82.8180 256° West 450 518 38,000  Level FlightAware
12:20AM 39.3760 -82.9000 255° West 451 519 38,000  Level FlightAware
12:20AM 39.3510 -82.9960 251° West 451 519 38,000  Level FlightAware
12:21AM 39.3280 -83.0780 250° West 450 518 38,000  Level FlightAware
12:21AM 39.3010 -83.1690 249° West 451 519 38,000  Level FlightAware
12:22AM 39.2720 -83.2640 249° West 450 518 38,000  Level FlightAware
12:22AM 39.2480 -83.3440 249° West 450 518 38,000  Level FlightAware
12:23AM 39.2220 -83.4340 250° West 449 517 38,000  Level FlightAware
12:24AM 39.1950 -83.5240 249° West 449 517 38,000 -600 Level FlightAware
12:24AM 39.1700 -83.6080 249° West 444 511 37,300 -2,100 Descending FlightAware
12:25AM 39.1440 -83.6980 250° West 449 517 35,600 -2,760 Descending FlightAware
12:25AM 39.1190 -83.7800 249° West 453 521 34,100 -2,940 Descending FlightAware
12:26AM 39.0940 -83.8660 249° West 459 528 32,300 -3,360 Descending FlightAware
12:27AM 39.0650 -83.9600 248° West 467 537 30,200 -3,180 Descending FlightAware
12:27AM 39.0360 -84.0590 249° West 464 534 28,500 -2,640 Descending FlightAware
12:28AM 39.0120 -84.1380 249° West 458 527 27,200 -2,580 Descending FlightAware
12:28AM 38.9860 -84.2240 249° West 452 520 25,700 -1,680 Descending FlightAware
12:29AM 38.9620 -84.3020 248° West 451 519 25,300 -360 Descending FlightAware
12:29AM 38.9370 -84.3800 248° West 451 519 25,300  Level FlightAware
12:30AM 38.9130 -84.4580 248° West 451 519 25,300  Level FlightAware
12:31AM 38.8890 -84.5350 248° West 451 519 25,300  Level FlightAware
12:31AM 38.8650 -84.6110 248° West 451 519 25,300  Level FlightAware
12:32AM 38.8400 -84.6890 248° West 451 519 25,300 -4,620 Level FlightAware
12:34AM 38.7010 -85.0080 241° Southwest 398 458 12,300 -4,620 Descending FlightAware
12:35AM 38.6550 -85.0520 217° Southwest 398 458 12,300 -300 Level FlightAware
12:35AM 38.6120 -85.0950 218° Southwest 368 423 12,000 -720 Descending FlightAware
12:36AM 38.5530 -85.1510 217° Southwest 354 407 11,500 -1,140 Descending FlightAware
12:36AM 38.5120 -85.1900 217° Southwest 349 402 10,600 -1,140 Descending FlightAware
12:37AM 38.4600 -85.2390 216° Southwest 325 374 10,100 -600 Descending FlightAware
12:38AM 38.4330 -85.2640 216° Southwest 310 357 10,000 -600 Descending FlightAware
12:38AM 38.4140 -85.2830 218° Southwest 301 346 9,700 -1,140 Descending FlightAware
12:38AM 38.3840 -85.3120 217° Southwest 297 342 9,200 -1,260 Descending FlightAware
12:39AM 38.3650 -85.3300 217° Southwest 295 339 8,800 -1,380 Descending FlightAware
12:39AM 38.3400 -85.3530 216° Southwest 295 339 8,300 -1,320 Descending FlightAware
12:39AM 38.3230 -85.3700 218° Southwest 295 339 8,000 -1,140 Descending FlightAware
12:40AM 38.3000 -85.3910 216° Southwest 294 338 7,600 -1,200 Descending FlightAware
12:40AM 38.2780 -85.4130 218° Southwest 293 337 7,200 -900 Descending FlightAware
12:40AM 38.2560 -85.4330 216° Southwest 290 334 7,000 -360 Descending FlightAware
12:40AM 38.2420 -85.4510 225° Southwest 272 313 7,000  Level FlightAware
12:41AM 38.2370 -85.4620 240° Southwest 260 299 7,000  Level FlightAware
12:41AM 38.2320 -85.4770 247° West 245 282 7,000 -420 Level FlightAware
12:41AM 38.2260 -85.5050 255° West 236 272 6,800 -780 Descending FlightAware
12:41AM 38.2200 -85.5310 254° West 232 267 6,500 -1,080 Descending FlightAware
12:42AM 38.2140 -85.5580 254° West 233 268 6,100 -840 Descending FlightAware
12:42AM 38.2080 -85.5890 256° West 219 252 5,900 -240 Descending FlightAware
12:42AM 38.2060 -85.5930 238° Southwest 217 250 6,000 420 Climbing FlightAware
12:42AM 38.2010 -85.6040 240° Southwest 208 239 6,000  Level FlightAware
12:43AM 38.1950 -85.6110 223° Southwest 207 238 6,000  Level FlightAware
12:43AM 38.1890 -85.6150 208° Southwest 210 242 6,000  Level FlightAware
12:43AM 38.1850 -85.6160 191° South 211 243 6,000  Level FlightAware
12:43AM 38.1750 -85.6160 180° South 214 246 6,000  Level FlightAware
12:43AM 38.1670 -85.6140 169° South 216 249 6,000  Level FlightAware
12:43AM 38.1480 -85.6080 166° South 215 247 6,000 -480 Level FlightAware
12:44AM 38.1290 -85.6020 166° South 210 242 5,700 -1,020 Descending FlightAware
12:44AM 38.1080 -85.5950 165° South 211 243 5,300 -1,200 Descending FlightAware
12:44AM 38.0890 -85.5880 164° South 212 244 4,900 -1,140 Descending FlightAware
12:45AM 38.0730 -85.5820 164° South 212 244 4,600 -1,020 Descending FlightAware
12:45AM 38.0490 -85.5780 173° South 212 244 4,200 -840 Descending FlightAware
12:45AM 38.0280 -85.5750 174° South 208 239 4,000 -300 Descending FlightAware
12:46AM 38.0110 -85.5720 172° South 208 239 4,000  Level FlightAware
12:46AM 37.9940 -85.5700 175° South 211 243 4,000 -180 Level FlightAware
12:46AM 37.9750 -85.5670 173° South 208 239 3,900 -540 Descending FlightAware
12:47AM 37.9610 -85.5650 174° South 205 236 3,700 -960 Descending FlightAware
12:47AM 37.9430 -85.5760 206° Southwest 186 214 3,300 -1,140 Descending FlightAware
12:47AM 37.9400 -85.5850 247° West 176 203 3,100 -1,320 Descending FlightAware
12:47AM 37.9390 -85.5910 258° West 166 191 3,000 -240 Descending FlightAware
12:48AM 37.9380 -85.6120 267° West 166 191 3,000  Level FlightAware
12:48AM 37.9520 -85.6130 357° North 161 185 3,000  Level FlightAware
12:48AM 37.9660 -85.6280 320° Northwest 161 185 3,000  Level FlightAware
12:49AM 37.9830 -85.6480 317° Northwest 161 185 3,000  Level FlightAware
12:49AM 37.9920 -85.6580 319° Northwest 161 185 3,000  Level FlightAware
12:49AM 37.9990 -85.6640 326° Northwest 161 185 3,000  Level FlightAware
12:49AM 38.0090 -85.6700 335° Northwest 163 188 3,000  Level FlightAware
12:50AM 38.0230 -85.6750 344° North 164 189 3,000  Level FlightAware
12:50AM 38.0360 -85.6800 343° North 165 190 3,000 -480 Level FlightAware
12:50AM 38.0510 -85.6850 345° North 164 189 2,700 -900 Descending FlightAware
12:51AM 38.0710 -85.6920 345° North 162 186 2,300 -900 Descending FlightAware
12:51AM 38.0850 -85.6970 344° North 153 176 2,000 -780 Descending FlightAware
12:52AM 38.0970 -85.7000 349° North 133 153 1,800 -660 Descending FlightAware
12:52AM 38.1090 -85.7050 342° North 125 144 1,600 -720 Descending FlightAware
12:52AM 38.1240 -85.7100 345° North 136 157 1,300 -720 Descending FlightAware
12:53AM 38.1360 -85.7140 345° North 137 158 1,100 -780 Descending FlightAware
12:53AM 38.1490 -85.7180 346° North 143 165 800 -780 Descending FlightAware
12:53AM 38.1560 -85.7210 341° North 142 163 700 -540 Descending FlightAware
12:54AM 38.1720 -85.7260 346° North 130 150 -1,620 Descending FlightAware